sensor_id;sensor_type;location;lat;lon;timestamp;temperature;humidity
14301;DHT22;7234;59.306;18.024;2024-03-23T00:52:22;4.50;99.90
14301;DHT22;7234;59.306;18.024;2024-03-23T00:54:49;4.40;99.90
14301;DHT22;7234;59.306;18.024;2024-03-23T00:57:15;4.30;99.90
14301;DHT22;7234;59.306;18.024;2024-03-23T00:59:42;4.30;99.90
14301;DHT22;7234;59.306;18.024;2024-03-23T01:02:08;4.30;99.90
14301;DHT22;7234;59.306;18.024;2024-03-23T01:04:35;4.30;99.90
14301;DHT22;7234;59.306;18.024;2024-03-23T01:07:02;4.20;99.90
14301;DHT22;7234;59.306;18.024;2024-03-23T01:09:30;4.20;99.90
14301;DHT22;7234;59.306;18.024;2024-03-23T01:11:56;4.20;99.90
14301;DHT22;7234;59.306;18.024;2024-03-23T01:14:23;4.20;99.90
14301;DHT22;7234;59.306;18.024;2024-03-23T01:16:49;4.20;99.90
14301;DHT22;7234;59.306;18.024;2024-03-23T01:19:16;4.20;99.90
14301;DHT22;7234;59.306;18.024;2024-03-23T01:21:43;4.10;99.90
14301;DHT22;7234;59.306;18.024;2024-03-23T01:24:10;4.10;99.90
14301;DHT22;7234;59.306;18.024;2024-03-23T01:26:38;4.10;99.90
14301;DHT22;7234;59.306;18.024;2024-03-23T01:29:05;4.10;99.90
14301;DHT22;7234;59.306;18.024;2024-03-23T01:31:31;4.20;99.90
14301;DHT22;7234;59.306;18.024;2024-03-23T01:33:58;4.10;99.90
14301;DHT22;7234;59.306;18.024;2024-03-23T01:36:24;4.10;99.90
14301;DHT22;7234;59.306;18.024;2024-03-23T01:38:51;4.00;99.90
14301;DHT22;7234;59.306;18.024;2024-03-23T01:41:17;3.90;99.90
14301;DHT22;7234;59.306;18.024;2024-03-23T01:43:46;3.90;99.90
14301;DHT22;7234;59.306;18.024;2024-03-23T01:46:13;3.90;99.90
14301;DHT22;7234;59.306;18.024;2024-03-23T01:48:40;3.90;99.90
14301;DHT22;7234;59.306;18.024;2024-03-23T01:51:06;4.00;99.90
14301;DHT22;7234;59.306;18.024;2024-03-23T01:53:36;3.90;99.90
14301;DHT22;7234;59.306;18.024;2024-03-23T01:56:03;3.90;99.90
14301;DHT22;7234;59.306;18.024;2024-03-23T01:58:30;3.90;99.90
14301;DHT22;7234;59.306;18.024;2024-03-23T02:00:58;3.90;99.90
14301;DHT22;7234;59.306;18.024;2024-03-23T02:03:27;3.80;99.90
14301;DHT22;7234;59.306;18.024;2024-03-23T02:05:53;3.80;99.90
14301;DHT22;7234;59.306;18.024;2024-03-23T02:08:22;3.80;99.90
14301;DHT22;7234;59.306;18.024;2024-03-23T02:10:48;3.80;99.90
14301;DHT22;7234;59.306;18.024;2024-03-23T02:13:17;3.80;99.90
14301;DHT22;7234;59.306;18.024;2024-03-23T02:15:43;3.80;99.90
14301;DHT22;7234;59.306;18.024;2024-03-23T02:18:12;3.90;99.90
14301;DHT22;7234;59.306;18.024;2024-03-23T02:20:38;3.90;99.90
14301;DHT22;7234;59.306;18.024;2024-03-23T02:23:13;3.80;99.90
14301;DHT22;7234;59.306;18.024;2024-03-23T02:25:39;3.80;99.90
14301;DHT22;7234;59.306;18.024;2024-03-23T02:28:06;3.80;99.90
14301;DHT22;7234;59.306;18.024;2024-03-23T02:30:32;3.80;99.90
14301;DHT22;7234;59.306;18.024;2024-03-23T02:32:59;3.80;99.90
14301;DHT22;7234;59.306;18.024;2024-03-23T02:35:25;3.80;99.90
14301;DHT22;7234;59.306;18.024;2024-03-23T02:37:52;3.80;99.90
14301;DHT22;7234;59.306;18.024;2024-03-23T02:40:20;3.80;99.90
14301;DHT22;7234;59.306;18.024;2024-03-23T02:42:47;3.70;99.90
14301;DHT22;7234;59.306;18.024;2024-03-23T02:45:13;3.60;99.90
14301;DHT22;7234;59.306;18.024;2024-03-23T02:47:40;3.60;99.90
14301;DHT22;7234;59.306;18.024;2024-03-23T02:50:07;3.60;99.90
14301;DHT22;7234;59.306;18.024;2024-03-23T02:52:34;3.60;99.90
14301;DHT22;7234;59.306;18.024;2024-03-23T02:55:00;3.60;99.90
14301;DHT22;7234;59.306;18.024;2024-03-23T02:57:29;3.50;99.90
14301;DHT22;7234;59.306;18.024;2024-03-23T02:59:55;3.60;99.90
14301;DHT22;7234;59.306;18.024;2024-03-23T03:02:22;3.60;99.90
14301;DHT22;7234;59.306;18.024;2024-03-23T03:04:48;3.60;99.90
14301;DHT22;7234;59.306;18.024;2024-03-23T03:07:15;3.60;99.90
14301;DHT22;7234;59.306;18.024;2024-03-23T03:09:41;3.60;99.90
14301;DHT22;7234;59.306;18.024;2024-03-23T03:12:09;3.50;99.90
14301;DHT22;7234;59.306;18.024;2024-03-23T03:14:40;3.40;99.90
14301;DHT22;7234;59.306;18.024;2024-03-23T03:17:06;3.40;99.90
14301;DHT22;7234;59.306;18.024;2024-03-23T03:19:33;3.40;99.90
14301;DHT22;7234;59.306;18.024;2024-03-23T03:21:59;3.40;99.90
14301;DHT22;7234;59.306;18.024;2024-03-23T03:24:26;3.30;99.90
14301;DHT22;7234;59.306;18.024;2024-03-23T03:26:52;3.40;99.90
14301;DHT22;7234;59.306;18.024;2024-03-23T03:29:19;3.40;99.90
14301;DHT22;7234;59.306;18.024;2024-03-23T03:31:47;3.30;99.90
14301;DHT22;7234;59.306;18.024;2024-03-23T03:34:15;3.40;99.90
14301;DHT22;7234;59.306;18.024;2024-03-23T03:36:41;3.30;99.90
14301;DHT22;7234;59.306;18.024;2024-03-23T03:39:08;3.20;99.90
14301;DHT22;7234;59.306;18.024;2024-03-23T03:41:34;3.20;99.90
14301;DHT22;7234;59.306;18.024;2024-03-23T03:44:01;3.20;99.90
14301;DHT22;7234;59.306;18.024;2024-03-23T03:46:27;3.20;99.90
14301;DHT22;7234;59.306;18.024;2024-03-23T03:48:56;3.20;99.90
14301;DHT22;7234;59.306;18.024;2024-03-23T03:51:22;3.10;99.90
14301;DHT22;7234;59.306;18.024;2024-03-23T03:53:49;3.10;99.90
14301;DHT22;7234;59.306;18.024;2024-03-23T03:56:15;3.10;99.90
14301;DHT22;7234;59.306;18.024;2024-03-23T03:58:42;3.10;99.90
14301;DHT22;7234;59.306;18.024;2024-03-23T04:01:08;3.20;99.90
14301;DHT22;7234;59.306;18.024;2024-03-23T04:03:35;3.10;99.90
14301;DHT22;7234;59.306;18.024;2024-03-23T04:06:03;3.10;99.90
14301;DHT22;7234;59.306;18.024;2024-03-23T04:08:30;3.10;99.90
14301;DHT22;7234;59.306;18.024;2024-03-23T04:10:56;3.10;99.90
14301;DHT22;7234;59.306;18.024;2024-03-23T04:13:23;3.00;99.90
14301;DHT22;7234;59.306;18.024;2024-03-23T04:15:53;3.00;99.90
14301;DHT22;7234;59.306;18.024;2024-03-23T04:18:20;3.10;99.90
14301;DHT22;7234;59.306;18.024;2024-03-23T04:20:47;3.10;99.90
14301;DHT22;7234;59.306;18.024;2024-03-23T04:23:15;3.00;99.90
14301;DHT22;7234;59.306;18.024;2024-03-23T04:25:41;3.00;99.90
14301;DHT22;7234;59.306;18.024;2024-03-23T04:28:08;3.00;99.90
14301;DHT22;7234;59.306;18.024;2024-03-23T04:30:34;3.00;99.90
14301;DHT22;7234;59.306;18.024;2024-03-23T04:33:02;2.90;99.90
14301;DHT22;7234;59.306;18.024;2024-03-23T04:35:28;2.90;99.90
14301;DHT22;7234;59.306;18.024;2024-03-23T04:37:55;2.90;99.90
14301;DHT22;7234;59.306;18.024;2024-03-23T04:40:25;2.80;99.90
14301;DHT22;7234;59.306;18.024;2024-03-23T04:42:52;2.80;99.90
14301;DHT22;7234;59.306;18.024;2024-03-23T04:45:19;2.80;99.90
14301;DHT22;7234;59.306;18.024;2024-03-23T04:47:46;2.90;99.90
14301;DHT22;7234;59.306;18.024;2024-03-23T04:50:13;2.90;99.90
14301;DHT22;7234;59.306;18.024;2024-03-23T04:52:41;2.90;99.90
14301;DHT22;7234;59.306;18.024;2024-03-23T04:55:08;2.80;99.90
14301;DHT22;7234;59.306;18.024;2024-03-23T04:57:36;2.80;99.90
14301;DHT22;7234;59.306;18.024;2024-03-23T05:00:02;2.80;99.90
14301;DHT22;7234;59.306;18.024;2024-03-23T05:02:40;2.90;99.90
14301;DHT22;7234;59.306;18.024;2024-03-23T05:05:07;2.90;99.90
14301;DHT22;7234;59.306;18.024;2024-03-23T05:07:34;2.90;99.90
14301;DHT22;7234;59.306;18.024;2024-03-23T05:10:01;2.90;99.90
14301;DHT22;7234;59.306;18.024;2024-03-23T05:12:27;2.80;99.90
14301;DHT22;7234;59.306;18.024;2024-03-23T05:14:55;2.90;99.90
14301;DHT22;7234;59.306;18.024;2024-03-23T05:17:21;2.90;99.90
14301;DHT22;7234;59.306;18.024;2024-03-23T05:19:48;3.00;99.90
14301;DHT22;7234;59.306;18.024;2024-03-23T05:22:14;3.00;99.90
14301;DHT22;7234;59.306;18.024;2024-03-23T05:24:41;3.00;99.90
14301;DHT22;7234;59.306;18.024;2024-03-23T05:27:07;2.90;99.90
14301;DHT22;7234;59.306;18.024;2024-03-23T05:29:34;3.00;99.90
14301;DHT22;7234;59.306;18.024;2024-03-23T05:32:01;3.10;99.90
14301;DHT22;7234;59.306;18.024;2024-03-23T05:34:28;3.10;99.90
14301;DHT22;7234;59.306;18.024;2024-03-23T05:36:55;3.10;99.90
14301;DHT22;7234;59.306;18.024;2024-03-23T05:39:23;3.20;99.90
14301;DHT22;7234;59.306;18.024;2024-03-23T05:41:49;3.40;99.90
14301;DHT22;7234;59.306;18.024;2024-03-23T05:44:16;3.40;99.90
14301;DHT22;7234;59.306;18.024;2024-03-23T05:46:42;3.50;99.90
14301;DHT22;7234;59.306;18.024;2024-03-23T05:49:15;3.50;99.90
14301;DHT22;7234;59.306;18.024;2024-03-23T05:51:42;3.60;99.90
14301;DHT22;7234;59.306;18.024;2024-03-23T05:54:09;3.70;99.90
14301;DHT22;7234;59.306;18.024;2024-03-23T05:56:35;3.90;99.90
14301;DHT22;7234;59.306;18.024;2024-03-23T05:59:02;4.10;99.90
14301;DHT22;7234;59.306;18.024;2024-03-23T06:01:29;4.10;99.90
14301;DHT22;7234;59.306;18.024;2024-03-23T06:03:58;4.30;99.90
14301;DHT22;7234;59.306;18.024;2024-03-23T06:06:25;4.40;99.90
14301;DHT22;7234;59.306;18.024;2024-03-23T06:08:52;4.40;99.90
14301;DHT22;7234;59.306;18.024;2024-03-23T06:11:18;4.50;99.90
14301;DHT22;7234;59.306;18.024;2024-03-23T06:13:45;4.50;99.90
14301;DHT22;7234;59.306;18.024;2024-03-23T06:16:12;4.70;99.90
14301;DHT22;7234;59.306;18.024;2024-03-23T06:18:39;4.70;99.90
14301;DHT22;7234;59.306;18.024;2024-03-23T06:21:05;4.70;99.90
14301;DHT22;7234;59.306;18.024;2024-03-23T06:23:41;4.90;99.90
14301;DHT22;7234;59.306;18.024;2024-03-23T19:20:19;4.60;99.90
14301;DHT22;7234;59.306;18.024;2024-03-23T19:22:46;4.50;99.90
14301;DHT22;7234;59.306;18.024;2024-03-23T19:25:12;4.50;99.90
14301;DHT22;7234;59.306;18.024;2024-03-23T19:27:39;4.50;99.90
14301;DHT22;7234;59.306;18.024;2024-03-23T19:30:06;4.40;99.90
14301;DHT22;7234;59.306;18.024;2024-03-23T19:32:34;4.40;99.90
14301;DHT22;7234;59.306;18.024;2024-03-23T19:34:59;4.40;99.90
14301;DHT22;7234;59.306;18.024;2024-03-23T19:37:31;4.40;99.90
14301;DHT22;7234;59.306;18.024;2024-03-23T19:39:57;4.40;99.90
14301;DHT22;7234;59.306;18.024;2024-03-23T19:42:24;4.30;99.90
14301;DHT22;7234;59.306;18.024;2024-03-23T19:44:50;4.20;99.90
14301;DHT22;7234;59.306;18.024;2024-03-23T19:47:17;4.30;99.90
14301;DHT22;7234;59.306;18.024;2024-03-23T19:49:43;4.20;99.90
14301;DHT22;7234;59.306;18.024;2024-03-23T19:52:10;4.20;99.90
14301;DHT22;7234;59.306;18.024;2024-03-23T19:54:37;4.20;99.90
14301;DHT22;7234;59.306;18.024;2024-03-23T19:57:04;4.30;99.90
14301;DHT22;7234;59.306;18.024;2024-03-23T19:59:30;4.30;99.90
14301;DHT22;7234;59.306;18.024;2024-03-23T20:01:57;4.20;99.90
14301;DHT22;7234;59.306;18.024;2024-03-23T20:04:24;4.30;99.90
14301;DHT22;7234;59.306;18.024;2024-03-23T20:06:51;4.30;99.90
14301;DHT22;7234;59.306;18.024;2024-03-23T20:09:17;4.30;99.90
14301;DHT22;7234;59.306;18.024;2024-03-23T20:11:45;4.40;99.90
14301;DHT22;7234;59.306;18.024;2024-03-23T20:14:11;4.30;99.90
14301;DHT22;7234;59.306;18.024;2024-03-23T20:16:39;4.40;99.90
14301;DHT22;7234;59.306;18.024;2024-03-23T20:19:05;4.30;99.90
14301;DHT22;7234;59.306;18.024;2024-03-23T20:21:32;4.40;99.90
14301;DHT22;7234;59.306;18.024;2024-03-23T20:23:58;4.40;99.90
14301;DHT22;7234;59.306;18.024;2024-03-23T20:26:26;4.40;99.90
14301;DHT22;7234;59.306;18.024;2024-03-23T20:28:53;4.40;99.90
14301;DHT22;7234;59.306;18.024;2024-03-23T20:31:20;4.40;99.90
14301;DHT22;7234;59.306;18.024;2024-03-23T20:33:46;4.40;99.90
14301;DHT22;7234;59.306;18.024;2024-03-23T20:36:14;4.30;99.90
14301;DHT22;7234;59.306;18.024;2024-03-23T20:38:40;4.30;99.90
14301;DHT22;7234;59.306;18.024;2024-03-23T20:41:07;4.40;99.90
14301;DHT22;7234;59.306;18.024;2024-03-23T20:43:33;4.30;99.90
14301;DHT22;7234;59.306;18.024;2024-03-23T20:46:03;4.40;99.90
14301;DHT22;7234;59.306;18.024;2024-03-23T20:48:30;4.30;99.90
14301;DHT22;7234;59.306;18.024;2024-03-23T20:51:03;4.30;99.90
14301;DHT22;7234;59.306;18.024;2024-03-23T20:53:30;4.30;99.90
14301;DHT22;7234;59.306;18.024;2024-03-23T20:55:58;4.20;99.90
14301;DHT22;7234;59.306;18.024;2024-03-23T20:58:26;4.20;99.90
14301;DHT22;7234;59.306;18.024;2024-03-23T21:00:53;4.20;99.90
14301;DHT22;7234;59.306;18.024;2024-03-23T21:03:21;4.20;99.90
14301;DHT22;7234;59.306;18.024;2024-03-23T21:05:51;4.20;99.90
14301;DHT22;7234;59.306;18.024;2024-03-23T21:08:18;4.10;99.90
14301;DHT22;7234;59.306;18.024;2024-03-23T21:10:48;4.10;99.90
14301;DHT22;7234;59.306;18.024;2024-03-23T21:13:17;4.10;99.90
14301;DHT22;7234;59.306;18.024;2024-03-23T21:15:46;4.10;99.90
14301;DHT22;7234;59.306;18.024;2024-03-23T21:18:12;4.10;99.90
14301;DHT22;7234;59.306;18.024;2024-03-23T21:20:41;4.10;99.90
14301;DHT22;7234;59.306;18.024;2024-03-23T21:23:10;4.10;99.90
14301;DHT22;7234;59.306;18.024;2024-03-23T21:25:38;4.10;99.90
14301;DHT22;7234;59.306;18.024;2024-03-23T21:28:05;4.10;99.90
14301;DHT22;7234;59.306;18.024;2024-03-23T21:30:35;4.10;99.90
14301;DHT22;7234;59.306;18.024;2024-03-23T21:33:01;4.10;99.90
14301;DHT22;7234;59.306;18.024;2024-03-23T21:35:28;4.10;99.90
14301;DHT22;7234;59.306;18.024;2024-03-23T21:37:55;4.10;99.90
14301;DHT22;7234;59.306;18.024;2024-03-23T21:40:22;4.10;99.90
14301;DHT22;7234;59.306;18.024;2024-03-23T21:42:48;4.20;99.90
14301;DHT22;7234;59.306;18.024;2024-03-23T21:45:15;4.20;99.90
14301;DHT22;7234;59.306;18.024;2024-03-23T21:47:41;4.30;99.90
14301;DHT22;7234;59.306;18.024;2024-03-23T21:50:09;4.20;99.90
14301;DHT22;7234;59.306;18.024;2024-03-23T21:52:35;4.20;99.90
14301;DHT22;7234;59.306;18.024;2024-03-23T21:55:04;4.20;99.90
14301;DHT22;7234;59.306;18.024;2024-03-23T21:57:30;4.20;99.90
14301;DHT22;7234;59.306;18.024;2024-03-23T22:00:00;4.20;99.90
14301;DHT22;7234;59.306;18.024;2024-03-23T22:02:26;4.20;99.90
14301;DHT22;7234;59.306;18.024;2024-03-23T22:04:53;4.20;99.90
14301;DHT22;7234;59.306;18.024;2024-03-23T22:07:19;4.30;99.90
14301;DHT22;7234;59.306;18.024;2024-03-23T22:09:51;4.30;99.90
14301;DHT22;7234;59.306;18.024;2024-03-23T22:12:20;4.30;99.90
14301;DHT22;7234;59.306;18.024;2024-03-23T22:14:48;4.30;99.90
14301;DHT22;7234;59.306;18.024;2024-03-23T22:17:14;4.30;99.90
14301;DHT22;7234;59.306;18.024;2024-03-23T22:19:41;4.30;99.90
14301;DHT22;7234;59.306;18.024;2024-03-23T22:22:07;4.30;99.90
14301;DHT22;7234;59.306;18.024;2024-03-23T22:24:34;4.40;99.90
14301;DHT22;7234;59.306;18.024;2024-03-23T22:27:00;4.30;99.90
14301;DHT22;7234;59.306;18.024;2024-03-23T22:29:29;4.30;99.90
14301;DHT22;7234;59.306;18.024;2024-03-23T22:31:55;4.30;99.90
14301;DHT22;7234;59.306;18.024;2024-03-23T22:34:23;4.30;99.90
14301;DHT22;7234;59.306;18.024;2024-03-23T22:36:49;4.30;99.90
14301;DHT22;7234;59.306;18.024;2024-03-23T22:39:16;4.30;99.90
14301;DHT22;7234;59.306;18.024;2024-03-23T22:41:42;4.20;99.90
14301;DHT22;7234;59.306;18.024;2024-03-23T22:44:10;4.30;99.90
14301;DHT22;7234;59.306;18.024;2024-03-23T22:46:37;4.30;99.90
14301;DHT22;7234;59.306;18.024;2024-03-23T22:49:06;4.30;99.90
14301;DHT22;7234;59.306;18.024;2024-03-23T22:51:32;4.30;99.90
14301;DHT22;7234;59.306;18.024;2024-03-23T22:53:59;4.30;99.90
14301;DHT22;7234;59.306;18.024;2024-03-23T22:56:25;4.30;99.90
14301;DHT22;7234;59.306;18.024;2024-03-23T22:58:53;4.30;99.90
14301;DHT22;7234;59.306;18.024;2024-03-23T23:01:19;4.30;99.90
14301;DHT22;7234;59.306;18.024;2024-03-23T23:03:47;4.30;99.90
14301;DHT22;7234;59.306;18.024;2024-03-23T23:06:13;4.30;99.90
14301;DHT22;7234;59.306;18.024;2024-03-23T23:08:40;4.40;99.90
14301;DHT22;7234;59.306;18.024;2024-03-23T23:11:06;4.30;99.90
14301;DHT22;7234;59.306;18.024;2024-03-23T23:13:34;4.40;99.90
14301;DHT22;7234;59.306;18.024;2024-03-23T23:16:00;4.40;99.90
14301;DHT22;7234;59.306;18.024;2024-03-23T23:18:27;4.40;99.90
14301;DHT22;7234;59.306;18.024;2024-03-23T23:20:56;4.40;99.90
14301;DHT22;7234;59.306;18.024;2024-03-23T23:23:23;4.40;99.90
14301;DHT22;7234;59.306;18.024;2024-03-23T23:25:51;4.40;99.90
14301;DHT22;7234;59.306;18.024;2024-03-23T23:28:19;4.40;99.90
14301;DHT22;7234;59.306;18.024;2024-03-23T23:30:54;4.40;99.90
14301;DHT22;7234;59.306;18.024;2024-03-23T23:33:21;4.40;99.90
14301;DHT22;7234;59.306;18.024;2024-03-23T23:35:47;4.40;99.90
14301;DHT22;7234;59.306;18.024;2024-03-23T23:38:16;4.40;99.90
14301;DHT22;7234;59.306;18.024;2024-03-23T23:40:42;4.40;99.90
14301;DHT22;7234;59.306;18.024;2024-03-23T23:43:10;4.40;99.90
14301;DHT22;7234;59.306;18.024;2024-03-23T23:45:36;4.40;99.90
14301;DHT22;7234;59.306;18.024;2024-03-23T23:48:04;4.40;99.90
14301;DHT22;7234;59.306;18.024;2024-03-23T23:50:30;4.40;99.90
14301;DHT22;7234;59.306;18.024;2024-03-23T23:52:57;4.40;99.90
14301;DHT22;7234;59.306;18.024;2024-03-23T23:55:24;4.40;99.90
14301;DHT22;7234;59.306;18.024;2024-03-23T23:57:51;4.40;99.90
